KELZ/ELZ METAR and TAF weather

Enter ICAO airport designator
Station Type Date Time Source
KELZ METAR 2019/02/23 01:56 UTC NOAA

KELZ 230156Z AUTO 08004KT 10SM CLR M03/M07 A3038 RMK AO2 SLP320 T10331067 $


Station Type Date Time Source
KELZ Decoded METAR 2019/02/23 01:56 UTC NOAA

WELLSVILLE MUNICIPAL AIRPORT, NY, United States (KELZ) 42-06N 077-60W 646M
Feb 22, 2019 - 08:56 PM EST / 2019.02.23 0156 UTC
Wind: from the E (080 degrees) at 5 MPH (4 KT):0
Visibility: 10 mile(s):0
Sky conditions: clear
Temperature: 26.1 F (-3.3 C)
Windchill: 19 F (-7 C):1
Dew Point: 19.9 F (-6.7 C)
Relative Humidity: 77%
Pressure (altimeter): 30.38 in. Hg (1028 hPa)
ob: KELZ 230156Z AUTO 08004KT 10SM CLR M03/M07 A3038 RMK AO2 SLP320 T10331067
cycle: 2

Station Type Date Time Source
KELZ TAF UTC NOAA

Error!


Example: see airport list